SBI127 UNKL-UNNT
Flight info
| Callsign | SBI127 |
|---|---|
| Flight time | 1h 13m |
| Altitude | 32000 |
| Route | APRUS2F APRUS B926 NATIR NATIR1K |
| Aircraft | E170/M-SDE3GILORVW/S |
Departure
| Time | 2026-05-05 13:46 |
|---|---|
| Airport | Krasnoyarsk International Airport (UNKL) |
Arrival
| Time | 2026-05-05 14:59 |
|---|---|
| Airport | Novosibirsk Tolmachevo Airport (UNNT) |
| Time | Latitude | Longitude | Altitude | Speed | Heading |
|---|---|---|---|---|---|
| 2026-05-05 13:14 | 56.18070 | 92.47519 | 953 ft | 0 kts | 24° |
| 2026-05-05 13:36 | 56.18077 | 92.47525 | 952 ft | 2 kts | 24° |
| 2026-05-05 13:36 | 56.18095 | 92.47539 | 954 ft | 3 kts | 26° |
| 2026-05-05 13:36 | 56.18115 | 92.47567 | 954 ft | 3 kts | 64° |
| 2026-05-05 13:37 | 56.18116 | 92.47581 | 954 ft | 1 kts | 108° |
| 2026-05-05 13:37 | 56.18101 | 92.47636 | 954 ft | 9 kts | 114° |
| 2026-05-05 13:37 | 56.18065 | 92.47753 | 954 ft | 11 kts | 129° |
| 2026-05-05 13:37 | 56.18025 | 92.47889 | 954 ft | 14 kts | 113° |
| 2026-05-05 13:38 | 56.18006 | 92.47960 | 954 ft | 1 kts | 140° |
| 2026-05-05 13:38 | 56.17991 | 92.47972 | 954 ft | 2 kts | 164° |
| 2026-05-05 13:38 | 56.17955 | 92.47947 | 954 ft | 11 kts | 209° |
| 2026-05-05 13:38 | 56.17864 | 92.47872 | 954 ft | 16 kts | 203° |
| 2026-05-05 13:39 | 56.17754 | 92.47791 | 954 ft | 18 kts | 202° |
| 2026-05-05 13:39 | 56.17744 | 92.47784 | 951 ft | 0 kts | 202° |
| 2026-05-05 13:40 | 56.17743 | 92.47782 | 951 ft | 3 kts | 202° |
| 2026-05-05 13:40 | 56.17685 | 92.47759 | 951 ft | 13 kts | 165° |
| 2026-05-05 13:40 | 56.17638 | 92.47885 | 952 ft | 13 kts | 114° |
| 2026-05-05 13:40 | 56.17596 | 92.48060 | 954 ft | 18 kts | 113° |
| 2026-05-05 13:41 | 56.17544 | 92.48279 | 954 ft | 20 kts | 113° |
| 2026-05-05 13:41 | 56.17482 | 92.48538 | 951 ft | 26 kts | 112° |
| 2026-05-05 13:41 | 56.17403 | 92.48871 | 950 ft | 31 kts | 112° |
| 2026-05-05 13:41 | 56.17320 | 92.49221 | 951 ft | 32 kts | 114° |
| 2026-05-05 13:42 | 56.17237 | 92.49571 | 950 ft | 28 kts | 113° |
| 2026-05-05 13:42 | 56.17160 | 92.49902 | 950 ft | 30 kts | 113° |
| 2026-05-05 13:42 | 56.17079 | 92.50245 | 948 ft | 30 kts | 114° |
| 2026-05-05 13:42 | 56.16995 | 92.50582 | 951 ft | 30 kts | 112° |
| 2026-05-05 13:43 | 56.16914 | 92.50921 | 954 ft | 30 kts | 114° |
| 2026-05-05 13:43 | 56.16829 | 92.51273 | 952 ft | 32 kts | 115° |
| 2026-05-05 13:43 | 56.16731 | 92.51627 | 953 ft | 32 kts | 116° |
| 2026-05-05 13:43 | 56.16653 | 92.51944 | 953 ft | 18 kts | 116° |
| 2026-05-05 13:44 | 56.16646 | 92.51989 | 953 ft | 1 kts | 35° |
| 2026-05-05 13:44 | 56.16661 | 92.51980 | 953 ft | 7 kts | 322° |
| 2026-05-05 13:44 | 56.16695 | 92.51849 | 952 ft | 11 kts | 294° |
| 2026-05-05 13:44 | 56.16698 | 92.51836 | 951 ft | 0 kts | 293° |
| 2026-05-05 13:45 | 56.16700 | 92.51831 | 951 ft | 0 kts | 293° |
| 2026-05-05 13:45 | 56.16758 | 92.51587 | 952 ft | 56 kts | 292° |
| 2026-05-05 13:45 | 56.17001 | 92.50558 | 952 ft | 122 kts | 294° |
| 2026-05-05 13:45 | 56.17384 | 92.48897 | 1138 ft | 156 kts | 291° |
| 2026-05-05 13:46 | 56.17849 | 92.47038 | 1723 ft | 169 kts | 292° |
| 2026-05-05 13:46 | 56.18381 | 92.45142 | 2505 ft | 171 kts | 292° |
| 2026-05-05 13:46 | 56.18967 | 92.43206 | 3278 ft | 182 kts | 294° |
| 2026-05-05 13:46 | 56.19534 | 92.41209 | 4335 ft | 185 kts | 290° |
| 2026-05-05 13:47 | 56.19829 | 92.38920 | 5364 ft | 197 kts | 268° |
| 2026-05-05 13:47 | 56.19689 | 92.36370 | 6301 ft | 220 kts | 254° |
| 2026-05-05 13:47 | 56.19123 | 92.33712 | 7338 ft | 232 kts | 248° |
| 2026-05-05 13:47 | 56.18529 | 92.31169 | 8150 ft | 218 kts | 248° |
| 2026-05-05 13:48 | 56.17961 | 92.28722 | 8984 ft | 211 kts | 248° |
| 2026-05-05 13:48 | 56.17401 | 92.26205 | 9359 ft | 223 kts | 248° |
| 2026-05-05 13:48 | 56.16919 | 92.23628 | 10152 ft | 214 kts | 250° |
| 2026-05-05 13:48 | 56.16440 | 92.21146 | 10854 ft | 208 kts | 249° |
| 2026-05-05 13:49 | 56.15963 | 92.18772 | 11549 ft | 202 kts | 250° |
| 2026-05-05 13:49 | 56.15487 | 92.16435 | 12244 ft | 197 kts | 250° |
| 2026-05-05 13:49 | 56.15020 | 92.14155 | 12925 ft | 194 kts | 250° |
| 2026-05-05 13:49 | 56.14553 | 92.11884 | 13528 ft | 194 kts | 251° |
| 2026-05-05 13:50 | 56.14084 | 92.09612 | 14113 ft | 194 kts | 251° |
| 2026-05-05 13:50 | 56.13633 | 92.07323 | 14641 ft | 195 kts | 253° |
| 2026-05-05 13:50 | 56.13214 | 92.05005 | 15162 ft | 197 kts | 253° |
| 2026-05-05 13:50 | 56.12787 | 92.02663 | 15697 ft | 198 kts | 253° |
| 2026-05-05 13:51 | 56.12359 | 92.00302 | 16225 ft | 200 kts | 254° |
| 2026-05-05 13:51 | 56.11930 | 91.97920 | 16763 ft | 202 kts | 254° |
| 2026-05-05 13:51 | 56.11506 | 91.95550 | 17305 ft | 204 kts | 254° |
| 2026-05-05 13:51 | 56.11072 | 91.93122 | 17873 ft | 206 kts | 255° |
| 2026-05-05 13:52 | 56.10635 | 91.90672 | 18414 ft | 207 kts | 255° |
| 2026-05-05 13:52 | 56.10194 | 91.88202 | 18916 ft | 209 kts | 255° |
| 2026-05-05 13:52 | 56.09749 | 91.85716 | 19418 ft | 210 kts | 255° |
| 2026-05-05 13:52 | 56.09301 | 91.83216 | 19923 ft | 212 kts | 255° |
| 2026-05-05 13:53 | 56.08850 | 91.80696 | 20439 ft | 213 kts | 255° |
| 2026-05-05 13:53 | 56.08397 | 91.78155 | 20936 ft | 215 kts | 255° |
| 2026-05-05 13:53 | 56.07938 | 91.75604 | 21426 ft | 216 kts | 255° |
| 2026-05-05 13:53 | 56.07474 | 91.73037 | 21903 ft | 218 kts | 255° |
| 2026-05-05 13:54 | 56.07014 | 91.70488 | 22378 ft | 219 kts | 255° |
| 2026-05-05 13:54 | 56.06553 | 91.67935 | 23018 ft | 214 kts | 255° |
| 2026-05-05 13:54 | 56.06089 | 91.65375 | 23451 ft | 217 kts | 255° |
| 2026-05-05 13:54 | 56.05621 | 91.62794 | 23888 ft | 219 kts | 255° |
| 2026-05-05 13:55 | 56.05148 | 91.60199 | 24314 ft | 220 kts | 255° |
| 2026-05-05 13:55 | 56.04675 | 91.57595 | 24734 ft | 220 kts | 255° |
| 2026-05-05 13:55 | 56.04200 | 91.54982 | 25153 ft | 221 kts | 256° |
| 2026-05-05 13:55 | 56.03724 | 91.52360 | 25555 ft | 222 kts | 256° |
| 2026-05-05 13:56 | 56.03247 | 91.49780 | 25962 ft | 221 kts | 257° |
| 2026-05-05 13:56 | 56.02773 | 91.47160 | 26359 ft | 222 kts | 258° |
| 2026-05-05 13:56 | 56.02297 | 91.44535 | 26745 ft | 222 kts | 258° |
| 2026-05-05 13:56 | 56.01816 | 91.41909 | 27126 ft | 223 kts | 259° |
| 2026-05-05 13:57 | 56.01332 | 91.39277 | 27500 ft | 223 kts | 259° |
| 2026-05-05 13:57 | 56.00847 | 91.36640 | 27871 ft | 224 kts | 259° |
| 2026-05-05 13:57 | 56.00361 | 91.33993 | 28250 ft | 224 kts | 259° |
| 2026-05-05 13:57 | 55.99872 | 91.31342 | 28618 ft | 225 kts | 260° |
| 2026-05-05 13:58 | 55.99383 | 91.28689 | 28995 ft | 225 kts | 260° |
| 2026-05-05 13:58 | 55.98922 | 91.26054 | 29339 ft | 224 kts | 263° |
| 2026-05-05 13:58 | 55.98503 | 91.23372 | 29687 ft | 224 kts | 264° |
| 2026-05-05 13:58 | 55.98161 | 91.20675 | 30024 ft | 222 kts | 268° |
| 2026-05-05 13:59 | 55.97640 | 91.15255 | 30574 ft | 222 kts | 269° |
| 2026-05-05 13:59 | 55.97388 | 91.12541 | 30817 ft | 221 kts | 270° |
| 2026-05-05 14:00 | 55.96901 | 91.07245 | 31439 ft | 217 kts | 272° |
| 2026-05-05 14:00 | 55.96738 | 91.05451 | 31601 ft | 217 kts | 272° |
| 2026-05-05 14:00 | 55.96410 | 91.01919 | 31895 ft | 219 kts | 271° |
| 2026-05-05 14:00 | 55.96157 | 90.99206 | 31995 ft | 225 kts | 271° |
| 2026-05-05 14:01 | 55.95893 | 90.96409 | 32064 ft | 233 kts | 271° |
| 2026-05-05 14:01 | 55.95618 | 90.93497 | 32088 ft | 243 kts | 270° |
| 2026-05-05 14:01 | 55.95328 | 90.90452 | 32108 ft | 254 kts | 270° |
| 2026-05-05 14:01 | 55.95025 | 90.87275 | 32118 ft | 266 kts | 270° |
| 2026-05-05 14:02 | 55.94709 | 90.83955 | 32128 ft | 277 kts | 269° |
| 2026-05-05 14:02 | 55.94382 | 90.80536 | 32148 ft | 289 kts | 269° |
| 2026-05-05 14:02 | 55.94036 | 90.76927 | 32145 ft | 302 kts | 269° |
| 2026-05-05 14:02 | 55.93675 | 90.73167 | 32139 ft | 314 kts | 268° |
| 2026-05-05 14:03 | 55.93298 | 90.69258 | 32121 ft | 325 kts | 268° |
| 2026-05-05 14:03 | 55.92907 | 90.65211 | 32120 ft | 337 kts | 268° |
| 2026-05-05 14:03 | 55.92501 | 90.61025 | 32117 ft | 348 kts | 268° |
| 2026-05-05 14:03 | 55.92080 | 90.56710 | 32106 ft | 359 kts | 267° |
| 2026-05-05 14:04 | 55.91204 | 90.47760 | 32054 ft | 373 kts | 268° |
| 2026-05-05 14:04 | 55.90311 | 90.38738 | 32034 ft | 371 kts | 268° |
| 2026-05-05 14:05 | 55.89411 | 90.29675 | 32034 ft | 371 kts | 268° |
| 2026-05-05 14:05 | 55.88503 | 90.20613 | 32041 ft | 372 kts | 268° |
| 2026-05-05 14:06 | 55.87588 | 90.11554 | 32052 ft | 372 kts | 268° |
| 2026-05-05 14:06 | 55.86671 | 90.02556 | 32042 ft | 372 kts | 268° |
| 2026-05-05 14:07 | 55.85745 | 89.93552 | 32019 ft | 368 kts | 268° |
| 2026-05-05 14:07 | 55.84821 | 89.84584 | 32040 ft | 369 kts | 268° |
| 2026-05-05 14:08 | 55.83886 | 89.75609 | 32057 ft | 369 kts | 268° |
| 2026-05-05 14:08 | 55.82944 | 89.66639 | 32038 ft | 369 kts | 268° |
| 2026-05-05 14:09 | 55.82002 | 89.57736 | 32049 ft | 369 kts | 268° |
| 2026-05-05 14:09 | 55.81047 | 89.48768 | 32042 ft | 369 kts | 268° |
| 2026-05-05 14:10 | 55.80086 | 89.39809 | 32049 ft | 369 kts | 268° |
| 2026-05-05 14:10 | 55.79117 | 89.30846 | 32033 ft | 369 kts | 268° |
| 2026-05-05 14:11 | 55.78149 | 89.21953 | 32004 ft | 369 kts | 268° |
| 2026-05-05 14:11 | 55.77175 | 89.13060 | 32038 ft | 367 kts | 268° |
| 2026-05-05 14:12 | 55.76193 | 89.04163 | 32040 ft | 367 kts | 268° |
| 2026-05-05 14:12 | 55.75204 | 88.95269 | 32035 ft | 367 kts | 268° |
| 2026-05-05 14:13 | 55.74215 | 88.86438 | 31991 ft | 366 kts | 267° |
| 2026-05-05 14:13 | 55.73216 | 88.77581 | 32031 ft | 366 kts | 267° |
| 2026-05-05 14:14 | 55.72210 | 88.68716 | 32023 ft | 367 kts | 267° |
| 2026-05-05 14:14 | 55.71197 | 88.59852 | 32024 ft | 367 kts | 267° |
| 2026-05-05 14:15 | 55.70177 | 88.50986 | 32017 ft | 367 kts | 267° |
| 2026-05-05 14:15 | 55.69158 | 88.42190 | 32021 ft | 367 kts | 267° |
| 2026-05-05 14:16 | 55.68125 | 88.33331 | 32007 ft | 367 kts | 267° |
| 2026-05-05 14:16 | 55.67079 | 88.24416 | 32002 ft | 371 kts | 266° |
| 2026-05-05 14:17 | 55.66020 | 88.15474 | 32021 ft | 371 kts | 266° |
| 2026-05-05 14:17 | 55.64965 | 88.06600 | 32009 ft | 371 kts | 266° |
| 2026-05-05 14:18 | 55.63896 | 87.97672 | 32016 ft | 371 kts | 266° |
| 2026-05-05 14:18 | 55.62818 | 87.88729 | 32015 ft | 371 kts | 265° |
| 2026-05-05 14:19 | 55.61733 | 87.79798 | 32015 ft | 371 kts | 265° |
| 2026-05-05 14:19 | 55.60647 | 87.70894 | 31994 ft | 375 kts | 265° |
| 2026-05-05 14:20 | 55.59538 | 87.61886 | 32014 ft | 375 kts | 265° |
| 2026-05-05 14:20 | 55.58424 | 87.52882 | 32010 ft | 375 kts | 265° |
| 2026-05-05 14:21 | 55.57305 | 87.43889 | 32014 ft | 375 kts | 265° |
| 2026-05-05 14:21 | 55.56178 | 87.34902 | 31997 ft | 374 kts | 265° |
| 2026-05-05 14:22 | 55.55051 | 87.25973 | 32012 ft | 375 kts | 265° |
| 2026-05-05 14:22 | 55.53909 | 87.16969 | 31918 ft | 377 kts | 264° |
| 2026-05-05 14:23 | 55.53332 | 87.12445 | 31507 ft | 378 kts | 264° |
| 2026-05-05 14:23 | 55.52754 | 87.07930 | 31023 ft | 377 kts | 264° |
| 2026-05-05 14:23 | 55.52174 | 87.03412 | 30568 ft | 378 kts | 264° |
| 2026-05-05 14:23 | 55.51589 | 86.98874 | 30117 ft | 380 kts | 263° |
| 2026-05-05 14:24 | 55.51000 | 86.94314 | 29606 ft | 382 kts | 263° |
| 2026-05-05 14:24 | 55.50415 | 86.89812 | 29091 ft | 380 kts | 263° |
| 2026-05-05 14:24 | 55.49827 | 86.85288 | 28580 ft | 377 kts | 263° |
| 2026-05-05 14:24 | 55.49243 | 86.80802 | 28068 ft | 374 kts | 263° |
| 2026-05-05 14:25 | 55.48659 | 86.76343 | 27597 ft | 372 kts | 263° |
| 2026-05-05 14:25 | 55.48079 | 86.71923 | 27123 ft | 369 kts | 263° |
| 2026-05-05 14:25 | 55.47501 | 86.67527 | 26627 ft | 367 kts | 263° |
| 2026-05-05 14:25 | 55.46924 | 86.63167 | 26144 ft | 363 kts | 263° |
| 2026-05-05 14:26 | 55.46355 | 86.58856 | 25708 ft | 360 kts | 263° |
| 2026-05-05 14:26 | 55.45786 | 86.54571 | 25275 ft | 358 kts | 263° |
| 2026-05-05 14:26 | 55.45217 | 86.50306 | 24878 ft | 356 kts | 263° |
| 2026-05-05 14:26 | 55.44660 | 86.46131 | 24503 ft | 354 kts | 263° |
| 2026-05-05 14:27 | 55.44096 | 86.41923 | 24117 ft | 352 kts | 263° |
| 2026-05-05 14:27 | 55.43535 | 86.37740 | 23751 ft | 350 kts | 263° |
| 2026-05-05 14:27 | 55.42974 | 86.33573 | 23346 ft | 349 kts | 262° |
| 2026-05-05 14:27 | 55.42414 | 86.29432 | 22911 ft | 347 kts | 262° |
| 2026-05-05 14:28 | 55.41855 | 86.25301 | 22482 ft | 346 kts | 262° |
| 2026-05-05 14:28 | 55.41296 | 86.21188 | 22081 ft | 345 kts | 262° |
| 2026-05-05 14:28 | 55.40746 | 86.17149 | 21679 ft | 343 kts | 262° |
| 2026-05-05 14:28 | 55.40190 | 86.13075 | 21275 ft | 342 kts | 262° |
| 2026-05-05 14:29 | 55.39636 | 86.09028 | 20864 ft | 338 kts | 261° |
| 2026-05-05 14:29 | 55.39085 | 86.05025 | 20488 ft | 336 kts | 261° |
| 2026-05-05 14:29 | 55.38536 | 86.01033 | 20097 ft | 336 kts | 261° |
| 2026-05-05 14:29 | 55.37986 | 85.97046 | 19717 ft | 335 kts | 261° |
| 2026-05-05 14:30 | 55.37436 | 85.93075 | 19346 ft | 334 kts | 261° |
| 2026-05-05 14:30 | 55.36887 | 85.89121 | 18983 ft | 333 kts | 261° |
| 2026-05-05 14:30 | 55.36338 | 85.85172 | 18625 ft | 331 kts | 261° |
| 2026-05-05 14:30 | 55.35797 | 85.81295 | 18175 ft | 331 kts | 261° |
| 2026-05-05 14:31 | 55.35249 | 85.77379 | 17673 ft | 329 kts | 260° |
| 2026-05-05 14:31 | 55.34705 | 85.73496 | 17178 ft | 326 kts | 260° |
| 2026-05-05 14:31 | 55.34163 | 85.69643 | 16698 ft | 324 kts | 260° |
| 2026-05-05 14:31 | 55.33623 | 85.65813 | 16233 ft | 322 kts | 260° |
| 2026-05-05 14:32 | 55.33086 | 85.62013 | 15781 ft | 320 kts | 259° |
| 2026-05-05 14:32 | 55.32552 | 85.58233 | 15330 ft | 318 kts | 259° |
| 2026-05-05 14:32 | 55.32018 | 85.54473 | 14840 ft | 317 kts | 259° |
| 2026-05-05 14:32 | 55.31493 | 85.50781 | 14337 ft | 315 kts | 259° |
| 2026-05-05 14:33 | 55.30963 | 85.47061 | 13835 ft | 313 kts | 259° |
| 2026-05-05 14:33 | 55.30435 | 85.43369 | 13279 ft | 311 kts | 259° |
| 2026-05-05 14:33 | 55.29910 | 85.39712 | 12731 ft | 307 kts | 259° |
| 2026-05-05 14:33 | 55.29392 | 85.36102 | 12197 ft | 303 kts | 258° |
| 2026-05-05 14:34 | 55.28880 | 85.32542 | 11689 ft | 299 kts | 258° |
| 2026-05-05 14:34 | 55.28374 | 85.29035 | 11188 ft | 294 kts | 258° |
| 2026-05-05 14:34 | 55.27875 | 85.25593 | 10713 ft | 288 kts | 258° |
| 2026-05-05 14:34 | 55.27387 | 85.22225 | 10262 ft | 283 kts | 258° |
| 2026-05-05 14:35 | 55.26907 | 85.18910 | 9797 ft | 277 kts | 258° |
| 2026-05-05 14:35 | 55.26434 | 85.15666 | 9296 ft | 272 kts | 258° |
| 2026-05-05 14:35 | 55.25968 | 85.12480 | 8815 ft | 267 kts | 258° |
| 2026-05-05 14:35 | 55.25511 | 85.09350 | 8355 ft | 263 kts | 258° |
| 2026-05-05 14:36 | 55.25068 | 85.06318 | 7909 ft | 258 kts | 258° |
| 2026-05-05 14:36 | 55.24624 | 85.03296 | 7467 ft | 254 kts | 258° |
| 2026-05-05 14:36 | 55.24190 | 85.00337 | 7128 ft | 247 kts | 258° |
| 2026-05-05 14:36 | 55.23772 | 84.97496 | 7045 ft | 236 kts | 258° |
| 2026-05-05 14:37 | 55.23367 | 84.94757 | 7008 ft | 231 kts | 258° |
| 2026-05-05 14:37 | 55.22970 | 84.92033 | 6981 ft | 232 kts | 258° |
| 2026-05-05 14:37 | 55.22563 | 84.89297 | 6992 ft | 232 kts | 258° |
| 2026-05-05 14:37 | 55.22158 | 84.86564 | 6991 ft | 232 kts | 258° |
| 2026-05-05 14:38 | 55.21751 | 84.83826 | 6994 ft | 232 kts | 258° |
| 2026-05-05 14:38 | 55.21346 | 84.81128 | 6987 ft | 232 kts | 258° |
| 2026-05-05 14:38 | 55.20937 | 84.78395 | 6992 ft | 232 kts | 258° |
| 2026-05-05 14:38 | 55.20529 | 84.75658 | 6995 ft | 232 kts | 258° |
| 2026-05-05 14:39 | 55.20129 | 84.72923 | 6993 ft | 232 kts | 259° |
| 2026-05-05 14:39 | 55.19717 | 84.70185 | 6984 ft | 233 kts | 257° |
| 2026-05-05 14:39 | 55.19261 | 84.67473 | 6981 ft | 232 kts | 256° |
| 2026-05-05 14:39 | 55.18795 | 84.64764 | 6993 ft | 232 kts | 256° |
| 2026-05-05 14:40 | 55.18333 | 84.62055 | 6984 ft | 233 kts | 256° |
| 2026-05-05 14:40 | 55.17862 | 84.59342 | 6989 ft | 233 kts | 256° |
| 2026-05-05 14:40 | 55.17399 | 84.56661 | 6981 ft | 233 kts | 257° |
| 2026-05-05 14:40 | 55.16933 | 84.53960 | 7002 ft | 232 kts | 257° |
| 2026-05-05 14:41 | 55.16467 | 84.51246 | 6996 ft | 233 kts | 257° |
| 2026-05-05 14:41 | 55.15996 | 84.48528 | 6986 ft | 234 kts | 257° |
| 2026-05-05 14:41 | 55.15521 | 84.45795 | 6978 ft | 234 kts | 257° |
| 2026-05-05 14:41 | 55.15051 | 84.43071 | 6991 ft | 234 kts | 257° |
| 2026-05-05 14:42 | 55.14579 | 84.40347 | 6994 ft | 234 kts | 257° |
| 2026-05-05 14:42 | 55.14102 | 84.37617 | 6986 ft | 235 kts | 257° |
| 2026-05-05 14:42 | 55.13626 | 84.34888 | 6980 ft | 234 kts | 257° |
| 2026-05-05 14:42 | 55.13152 | 84.32171 | 6964 ft | 231 kts | 256° |
| 2026-05-05 14:43 | 55.12685 | 84.29496 | 6982 ft | 230 kts | 256° |
| 2026-05-05 14:43 | 55.12223 | 84.26854 | 6987 ft | 231 kts | 256° |
| 2026-05-05 14:43 | 55.11752 | 84.24173 | 6993 ft | 231 kts | 256° |
| 2026-05-05 14:43 | 55.11279 | 84.21486 | 7003 ft | 231 kts | 256° |
| 2026-05-05 14:44 | 55.10808 | 84.18799 | 6994 ft | 231 kts | 256° |
| 2026-05-05 14:44 | 55.10338 | 84.16125 | 6992 ft | 231 kts | 256° |
| 2026-05-05 14:44 | 55.09863 | 84.13439 | 7000 ft | 232 kts | 256° |
| 2026-05-05 14:44 | 55.09387 | 84.10751 | 6991 ft | 231 kts | 256° |
| 2026-05-05 14:45 | 55.08914 | 84.08072 | 6993 ft | 231 kts | 256° |
| 2026-05-05 14:45 | 55.08472 | 84.05378 | 6991 ft | 231 kts | 259° |
| 2026-05-05 14:45 | 55.08117 | 84.02689 | 6980 ft | 231 kts | 260° |
| 2026-05-05 14:45 | 55.07843 | 83.99941 | 6962 ft | 231 kts | 264° |
| 2026-05-05 14:46 | 55.07652 | 83.97174 | 6974 ft | 229 kts | 265° |
| 2026-05-05 14:46 | 55.07484 | 83.94413 | 6985 ft | 229 kts | 265° |
| 2026-05-05 14:46 | 55.07317 | 83.91645 | 6991 ft | 230 kts | 265° |
| 2026-05-05 14:46 | 55.07143 | 83.88868 | 6987 ft | 230 kts | 265° |
| 2026-05-05 14:47 | 55.06973 | 83.86091 | 7011 ft | 230 kts | 265° |
| 2026-05-05 14:47 | 55.06803 | 83.83315 | 6999 ft | 230 kts | 265° |
| 2026-05-05 14:47 | 55.06630 | 83.80541 | 6989 ft | 230 kts | 265° |
| 2026-05-05 14:47 | 55.06455 | 83.77770 | 6999 ft | 230 kts | 265° |
| 2026-05-05 14:48 | 55.06285 | 83.75031 | 6986 ft | 230 kts | 265° |
| 2026-05-05 14:48 | 55.06110 | 83.72274 | 6992 ft | 229 kts | 265° |
| 2026-05-05 14:48 | 55.05934 | 83.69520 | 6983 ft | 228 kts | 265° |
| 2026-05-05 14:48 | 55.05763 | 83.66762 | 6999 ft | 229 kts | 265° |
| 2026-05-05 14:49 | 55.05592 | 83.64003 | 6989 ft | 229 kts | 265° |
| 2026-05-05 14:49 | 55.05412 | 83.61251 | 6984 ft | 228 kts | 265° |
| 2026-05-05 14:49 | 55.05231 | 83.58492 | 7002 ft | 229 kts | 265° |
| 2026-05-05 14:49 | 55.05052 | 83.55725 | 6996 ft | 230 kts | 265° |
| 2026-05-05 14:50 | 55.04874 | 83.52957 | 6990 ft | 229 kts | 264° |
| 2026-05-05 14:50 | 55.04576 | 83.50225 | 6993 ft | 230 kts | 261° |
| 2026-05-05 14:50 | 55.04264 | 83.47492 | 7007 ft | 230 kts | 262° |
| 2026-05-05 14:50 | 55.03975 | 83.44793 | 6997 ft | 230 kts | 262° |
| 2026-05-05 14:51 | 55.03684 | 83.42043 | 6868 ft | 236 kts | 262° |
| 2026-05-05 14:51 | 55.03383 | 83.39215 | 6722 ft | 236 kts | 261° |
| 2026-05-05 14:51 | 55.03082 | 83.36414 | 6580 ft | 234 kts | 262° |
| 2026-05-05 14:51 | 55.02787 | 83.33643 | 6446 ft | 229 kts | 261° |
| 2026-05-05 14:52 | 55.02502 | 83.30994 | 6309 ft | 217 kts | 261° |
| 2026-05-05 14:52 | 55.02229 | 83.28460 | 6112 ft | 209 kts | 261° |
| 2026-05-05 14:52 | 55.01966 | 83.26013 | 5905 ft | 202 kts | 262° |
| 2026-05-05 14:52 | 55.01712 | 83.23655 | 5693 ft | 200 kts | 262° |
| 2026-05-05 14:53 | 55.01455 | 83.21286 | 5486 ft | 198 kts | 262° |
| 2026-05-05 14:53 | 55.01198 | 83.18926 | 5280 ft | 198 kts | 262° |
| 2026-05-05 14:53 | 55.00943 | 83.16572 | 5062 ft | 197 kts | 262° |
| 2026-05-05 14:53 | 55.00689 | 83.14248 | 4863 ft | 193 kts | 262° |
| 2026-05-05 14:54 | 55.00441 | 83.11969 | 4658 ft | 191 kts | 262° |
| 2026-05-05 14:54 | 55.00195 | 83.09707 | 4481 ft | 190 kts | 262° |
| 2026-05-05 14:54 | 54.99949 | 83.07445 | 4294 ft | 191 kts | 262° |
| 2026-05-05 14:54 | 54.99699 | 83.05210 | 4110 ft | 190 kts | 262° |
| 2026-05-05 14:55 | 54.99450 | 83.02944 | 3908 ft | 192 kts | 262° |
| 2026-05-05 14:55 | 54.99215 | 83.00647 | 3667 ft | 193 kts | 267° |
| 2026-05-05 14:55 | 54.99373 | 82.98349 | 3433 ft | 191 kts | 285° |
| 2026-05-05 14:55 | 54.99831 | 82.96176 | 3183 ft | 192 kts | 293° |
| 2026-05-05 14:56 | 55.00449 | 82.94112 | 2949 ft | 193 kts | 298° |
| 2026-05-05 14:56 | 55.01163 | 82.92130 | 2702 ft | 194 kts | 304° |
| 2026-05-05 14:56 | 55.02016 | 82.90301 | 2417 ft | 195 kts | 308° |
| 2026-05-05 14:56 | 55.02708 | 82.88316 | 2151 ft | 193 kts | 283° |
| 2026-05-05 14:57 | 55.02881 | 82.85957 | 2068 ft | 199 kts | 275° |
| 2026-05-05 14:57 | 55.02872 | 82.83566 | 2013 ft | 202 kts | 267° |
| 2026-05-05 14:57 | 55.02692 | 82.81146 | 1962 ft | 199 kts | 263° |
| 2026-05-05 14:57 | 55.02468 | 82.78830 | 1633 ft | 192 kts | 263° |
| 2026-05-05 14:58 | 55.02272 | 82.76504 | 1201 ft | 192 kts | 263° |
| 2026-05-05 14:58 | 55.02113 | 82.74260 | 1031 ft | 182 kts | 262° |
| 2026-05-05 14:58 | 55.01932 | 82.72162 | 921 ft | 166 kts | 259° |
| 2026-05-05 14:58 | 55.01734 | 82.70318 | 773 ft | 149 kts | 258° |
| 2026-05-05 14:59 | 55.01565 | 82.68571 | 517 ft | 141 kts | 261° |
| 2026-05-05 14:59 | 55.01418 | 82.66973 | 372 ft | 127 kts | 261° |
| 2026-05-05 14:59 | 55.01302 | 82.65709 | 370 ft | 78 kts | 260° |
| 2026-05-05 14:59 | 55.01240 | 82.65108 | 371 ft | 22 kts | 249° |
| 2026-05-05 15:00 | 55.01175 | 82.65059 | 370 ft | 10 kts | 173° |
| 2026-05-05 15:00 | 55.01150 | 82.65064 | 370 ft | 1 kts | 171° |
| 2026-05-05 15:00 | 55.01141 | 82.65067 | 370 ft | 0 kts | 171° |
| 2026-05-05 15:00 | 55.01124 | 82.65072 | 370 ft | 7 kts | 171° |
| 2026-05-05 15:01 | 55.01050 | 82.65094 | 371 ft | 13 kts | 169° |
| 2026-05-05 15:01 | 55.00953 | 82.65122 | 371 ft | 8 kts | 161° |
| 2026-05-05 15:01 | 55.00940 | 82.65180 | 371 ft | 0 kts | 98° |
| 2026-05-05 15:01 | 55.00935 | 82.65199 | 371 ft | 5 kts | 127° |
| 2026-05-05 15:02 | 55.00893 | 82.65228 | 371 ft | 7 kts | 144° |
| 2026-05-05 15:02 | 55.00887 | 82.65320 | 371 ft | 13 kts | 85° |
| 2026-05-05 15:02 | 55.00905 | 82.65526 | 371 ft | 21 kts | 81° |
| 2026-05-05 15:02 | 55.00928 | 82.65785 | 371 ft | 23 kts | 81° |
| 2026-05-05 15:03 | 55.00952 | 82.66033 | 371 ft | 12 kts | 81° |
| 2026-05-05 15:03 | 55.00972 | 82.66162 | 371 ft | 7 kts | 90° |
| 2026-05-05 15:03 | 55.00940 | 82.66199 | 371 ft | 6 kts | 171° |
| 2026-05-05 15:03 | 55.00929 | 82.66203 | 371 ft | 0 kts | 170° |
| 2026-05-05 15:04 | 55.00927 | 82.66203 | 371 ft | 0 kts | 170° |